createdAt,value
2017-04-10T00:00:47.512Z,1007.17
2017-04-10T00:01:47.532Z,1007.15
2017-04-10T00:02:47.551Z,1007.16
2017-04-10T00:03:47.570Z,1007.11
2017-04-10T00:04:47.590Z,1007.08
2017-04-10T00:05:47.611Z,1007.06
2017-04-10T00:06:47.633Z,1007.04
2017-04-10T00:07:47.650Z,1007.03
2017-04-10T00:08:47.670Z,1007.03
2017-04-10T00:09:47.688Z,1007
2017-04-10T00:10:47.708Z,1006.99
2017-04-10T00:11:47.728Z,1006.97
2017-04-10T00:12:47.748Z,1006.99
2017-04-10T00:13:47.766Z,1006.98
2017-04-10T00:14:47.787Z,1006.93
2017-04-10T00:15:47.806Z,1006.96
2017-04-10T00:16:47.826Z,1006.92
2017-04-10T00:17:47.844Z,1006.92
2017-04-10T00:18:47.864Z,1006.88
2017-04-10T00:19:47.884Z,1006.84
2017-04-10T00:20:47.903Z,1006.84
2017-04-10T00:21:47.921Z,1006.8
2017-04-10T00:22:47.941Z,1006.77
2017-04-10T00:23:47.962Z,1006.78
2017-04-10T00:24:47.981Z,1006.71
2017-04-10T00:25:47.999Z,1006.72
2017-04-10T00:26:48.019Z,1006.68
2017-04-10T00:27:48.040Z,1006.69
2017-04-10T00:28:48.058Z,1006.67
2017-04-10T00:29:48.078Z,1006.66
2017-04-10T00:30:48.098Z,1006.66
2017-04-10T00:31:48.117Z,1006.65
2017-04-10T00:32:48.136Z,1006.62
2017-04-10T00:33:48.158Z,1006.62
2017-04-10T00:34:48.176Z,1006.63
2017-04-10T00:35:48.193Z,1006.58
2017-04-10T00:36:48.214Z,1006.61
2017-04-10T00:37:48.232Z,1006.55
2017-04-10T00:38:48.251Z,1006.57
2017-04-10T00:39:48.271Z,1006.57
2017-04-10T00:40:48.291Z,1006.52
2017-04-10T00:41:48.308Z,1006.53
2017-04-10T00:42:48.335Z,1006.55
2017-04-10T00:43:48.348Z,1006.58
2017-04-10T00:44:48.367Z,1006.55
2017-04-10T00:45:48.385Z,1006.53
2017-04-10T00:46:48.405Z,1006.51
2017-04-10T00:47:48.422Z,1006.5
2017-04-10T00:48:48.442Z,1006.47
2017-04-10T00:49:48.461Z,1006.47
2017-04-10T00:50:48.480Z,1006.46
2017-04-10T00:51:48.499Z,1006.47
2017-04-10T00:52:48.520Z,1006.43
2017-04-10T00:53:48.539Z,1006.44
2017-04-10T00:54:48.559Z,1006.44
2017-04-10T00:55:48.576Z,1006.42
2017-04-10T00:56:48.596Z,1006.41
2017-04-10T00:57:48.616Z,1006.41
2017-04-10T00:58:48.635Z,1006.39
2017-04-10T00:59:48.653Z,1006.37
2017-04-10T01:00:48.672Z,1006.38
2017-04-10T01:01:48.690Z,1006.35
2017-04-10T01:02:48.713Z,1006.35
2017-04-10T01:03:48.729Z,1006.32
2017-04-10T01:04:48.750Z,1006.3
2017-04-10T01:05:48.766Z,1006.28
2017-04-10T01:06:48.785Z,1006.29
2017-04-10T01:07:48.805Z,1006.26
2017-04-10T01:08:48.823Z,1006.28
2017-04-10T01:09:48.844Z,1006.23
2017-04-10T01:10:48.862Z,1006.25
2017-04-10T01:11:48.881Z,1006.23
2017-04-10T01:12:48.900Z,1006.2
2017-04-10T01:13:48.919Z,1006.16
2017-04-10T01:14:48.938Z,1006.18
2017-04-10T01:15:48.958Z,1006.11
2017-04-10T01:16:48.976Z,1006.12
2017-04-10T01:17:48.994Z,1006.14
2017-04-10T01:18:49.013Z,1006.15
2017-04-10T01:19:49.032Z,1006.12
2017-04-10T01:20:49.062Z,1006.1
2017-04-10T01:21:49.070Z,1006.11
2017-04-10T01:22:49.088Z,1006.08
2017-04-10T01:23:49.105Z,1006.04
2017-04-10T01:24:49.124Z,1006.04
2017-04-10T01:25:49.144Z,1006.06
2017-04-10T01:26:49.163Z,1006.04
2017-04-10T01:27:49.180Z,1006.02
2017-04-10T01:28:49.199Z,1005.97
2017-04-10T01:29:49.218Z,1005.98
2017-04-10T01:30:49.237Z,1005.98
2017-04-10T01:31:49.256Z,1005.96
2017-04-10T01:32:49.276Z,1005.94
2017-04-10T01:33:49.294Z,1005.91
2017-04-10T01:34:49.311Z,1005.94
2017-04-10T01:35:49.330Z,1005.93
2017-04-10T01:36:49.349Z,1005.91
2017-04-10T01:37:49.368Z,1005.88
2017-04-10T01:38:49.387Z,1005.88
2017-04-10T01:39:49.405Z,1005.88
2017-04-10T01:40:49.424Z,1005.86
2017-04-10T01:41:49.440Z,1005.84
2017-04-10T01:42:49.461Z,1005.81
2017-04-10T01:43:49.481Z,1005.76
2017-04-10T01:44:49.538Z,1005.75
2017-04-10T01:45:49.516Z,1005.74
2017-04-10T01:46:49.535Z,1005.72
2017-04-10T01:47:49.554Z,1005.74
2017-04-10T01:48:49.570Z,1005.7
2017-04-10T01:49:49.593Z,1005.71
2017-04-10T01:50:49.612Z,1005.71
2017-04-10T01:51:49.629Z,1005.68
2017-04-10T01:52:49.647Z,1005.72
2017-04-10T01:53:49.663Z,1005.73
2017-04-10T01:54:49.683Z,1005.68
2017-04-10T01:55:49.701Z,1005.66
2017-04-10T01:56:49.720Z,1005.67
2017-04-10T01:57:49.737Z,1005.6
2017-04-10T01:58:49.757Z,1005.6
2017-04-10T01:59:49.774Z,1005.61
2017-04-10T02:00:49.793Z,1005.62
2017-04-10T02:01:49.812Z,1005.63
2017-04-10T02:02:49.830Z,1005.63
2017-04-10T02:03:49.848Z,1005.58
2017-04-10T02:04:49.866Z,1005.59
2017-04-10T02:05:49.884Z,1005.56
2017-04-10T02:06:49.905Z,1005.56
2017-04-10T02:07:49.921Z,1005.53
2017-04-10T02:08:49.939Z,1005.57
2017-04-10T02:09:49.960Z,1005.55
2017-04-10T02:10:49.976Z,1005.52
2017-04-10T02:11:49.996Z,1005.55
2017-04-10T02:12:50.015Z,1005.51
2017-04-10T02:13:50.033Z,1005.52
2017-04-10T02:14:50.050Z,1005.47
2017-04-10T02:15:50.069Z,1005.49
2017-04-10T02:16:50.088Z,1005.47
2017-04-10T02:17:50.107Z,1005.45
2017-04-10T02:18:50.122Z,1005.44
2017-04-10T02:19:50.140Z,1005.44
2017-04-10T02:20:50.161Z,1005.4
2017-04-10T02:21:50.178Z,1005.39
2017-04-10T02:22:50.197Z,1005.4
2017-04-10T02:23:50.214Z,1005.39
2017-04-10T02:24:50.233Z,1005.36
2017-04-10T02:25:50.251Z,1005.34
2017-04-10T02:26:50.270Z,1005.33
2017-04-10T02:27:50.289Z,1005.34
2017-04-10T02:28:50.306Z,1005.3
2017-04-10T02:29:50.324Z,1005.3
2017-04-10T02:30:50.343Z,1005.29
2017-04-10T02:31:50.362Z,1005.32
2017-04-10T02:32:50.379Z,1005.28
2017-04-10T02:33:50.398Z,1005.29
2017-04-10T02:34:50.415Z,1005.28
2017-04-10T02:35:50.434Z,1005.27
2017-04-10T02:36:50.451Z,1005.27
2017-04-10T02:37:50.471Z,1005.25
2017-04-10T02:38:50.486Z,1005.22
2017-04-10T02:39:50.506Z,1005.2
2017-04-10T02:40:50.522Z,1005.2
2017-04-10T02:41:50.542Z,1005.2
2017-04-10T02:42:50.560Z,1005.13
2017-04-10T02:43:50.579Z,1005.17
2017-04-10T02:44:50.595Z,1005.15
2017-04-10T02:45:50.616Z,1005.15
2017-04-10T02:46:50.632Z,1005.13
2017-04-10T02:47:50.651Z,1005.12
2017-04-10T02:48:50.668Z,1005.13
2017-04-10T02:49:50.686Z,1005.12
2017-04-10T02:50:50.702Z,1005.07
2017-04-10T02:51:50.722Z,1005.05
2017-04-10T02:52:50.739Z,1005.04
2017-04-10T02:53:50.759Z,1005.01
2017-04-10T02:54:50.775Z,1005.04
2017-04-10T02:55:50.792Z,1004.99
2017-04-10T02:56:50.811Z,1004.97
2017-04-10T02:57:50.830Z,1004.95
2017-04-10T02:58:50.851Z,1004.96
2017-04-10T02:59:50.865Z,1004.92
2017-04-10T03:00:50.883Z,1004.93
2017-04-10T03:01:50.899Z,1004.92
2017-04-10T03:02:50.919Z,1004.92
2017-04-10T03:03:50.937Z,1004.9
2017-04-10T03:04:50.955Z,1004.85
2017-04-10T03:05:50.973Z,1004.84
2017-04-10T03:06:50.991Z,1004.84
2017-04-10T03:07:51.009Z,1004.82
2017-04-10T03:08:51.026Z,1004.75
2017-04-10T03:09:51.043Z,1004.74
2017-04-10T03:10:51.062Z,1004.75
2017-04-10T03:11:51.080Z,1004.74
2017-04-10T03:12:51.097Z,1004.71
2017-04-10T03:13:51.114Z,1004.7
2017-04-10T03:14:51.134Z,1004.69
2017-04-10T03:15:51.150Z,1004.68
2017-04-10T03:16:51.168Z,1004.65
2017-04-10T03:17:51.187Z,1004.64
2017-04-10T03:18:51.204Z,1004.65
2017-04-10T03:19:51.222Z,1004.66
2017-04-10T03:20:51.240Z,1004.65
2017-04-10T03:21:51.260Z,1004.66
2017-04-10T03:22:51.277Z,1004.64
2017-04-10T03:23:51.292Z,1004.66
2017-04-10T03:24:51.311Z,1004.63
2017-04-10T03:25:51.330Z,1004.59
2017-04-10T03:26:51.347Z,1004.6
2017-04-10T03:27:51.364Z,1004.57
2017-04-10T03:28:51.381Z,1004.59
2017-04-10T03:29:51.400Z,1004.62
2017-04-10T03:30:51.419Z,1004.6
2017-04-10T03:31:51.433Z,1004.57
2017-04-10T03:32:51.454Z,1004.57
2017-04-10T03:33:51.470Z,1004.57
2017-04-10T03:34:51.487Z,1004.55
2017-04-10T03:35:51.508Z,1004.53
2017-04-10T03:36:51.525Z,1004.55
2017-04-10T03:37:51.540Z,1004.53
2017-04-10T03:38:51.558Z,1004.52
2017-04-10T03:39:51.578Z,1004.51
2017-04-10T03:40:51.592Z,1004.52
2017-04-10T03:41:51.611Z,1004.52
2017-04-10T03:42:51.627Z,1004.49
2017-04-10T03:43:51.646Z,1004.5
2017-04-10T03:44:51.664Z,1004.51
2017-04-10T03:45:51.681Z,1004.52
2017-04-10T03:46:51.700Z,1004.48
2017-04-10T03:47:51.717Z,1004.48
2017-04-10T03:48:51.736Z,1004.47
2017-04-10T03:49:51.752Z,1004.47
2017-04-10T03:50:51.769Z,1004.5
2017-04-10T03:51:51.787Z,1004.47
2017-04-10T03:52:51.805Z,1004.42
2017-04-10T03:53:51.821Z,1004.43
2017-04-10T03:54:51.840Z,1004.43
2017-04-10T03:55:51.856Z,1004.41
2017-04-10T03:56:51.876Z,1004.41
2017-04-10T03:57:51.892Z,1004.41
2017-04-10T03:58:51.909Z,1004.41
2017-04-10T03:59:51.928Z,1004.44
2017-04-10T04:00:51.945Z,1004.44
2017-04-10T04:01:51.962Z,1004.43
2017-04-10T04:02:51.980Z,1004.46
2017-04-10T04:03:51.997Z,1004.41
2017-04-10T04:04:52.017Z,1004.4
2017-04-10T04:05:52.034Z,1004.4
2017-04-10T04:06:52.052Z,1004.4
2017-04-10T04:07:52.067Z,1004.33
2017-04-10T04:08:52.084Z,1004.31
2017-04-10T04:09:52.103Z,1004.32
2017-04-10T04:10:52.119Z,1004.32
2017-04-10T04:11:52.138Z,1004.29
2017-04-10T04:12:52.155Z,1004.33
2017-04-10T04:13:52.174Z,1004.31
2017-04-10T04:14:52.211Z,1004.33
2017-04-10T04:15:52.208Z,1004.32
2017-04-10T04:16:52.226Z,1004.33
2017-04-10T04:17:52.243Z,1004.3
2017-04-10T04:18:52.258Z,1004.32
2017-04-10T04:19:52.277Z,1004.28
2017-04-10T04:20:52.294Z,1004.29
2017-04-10T04:21:52.312Z,1004.3
2017-04-10T04:22:52.328Z,1004.31
2017-04-10T04:23:52.347Z,1004.33
2017-04-10T04:24:52.365Z,1004.3
2017-04-10T04:25:52.384Z,1004.31
2017-04-10T04:26:52.399Z,1004.27
2017-04-10T04:27:52.415Z,1004.28
2017-04-10T04:28:52.439Z,1004.31
2017-04-10T04:29:52.450Z,1004.29
2017-04-10T04:30:52.468Z,1004.26
2017-04-10T04:31:52.489Z,1004.23
2017-04-10T04:32:52.504Z,1004.22
2017-04-10T04:33:52.521Z,1004.22
2017-04-10T04:34:52.539Z,1004.19
2017-04-10T04:35:52.556Z,1004.19
2017-04-10T04:36:52.572Z,1004.19
2017-04-10T04:37:52.589Z,1004.2
2017-04-10T04:38:52.606Z,1004.18
2017-04-10T04:39:52.625Z,1004.22
2017-04-10T04:40:52.640Z,1004.18
2017-04-10T04:41:52.658Z,1004.2
2017-04-10T04:42:52.677Z,1004.15
2017-04-10T04:43:52.696Z,1004.19
2017-04-10T04:44:52.712Z,1004.17
2017-04-10T04:45:52.728Z,1004.15
2017-04-10T04:46:52.745Z,1004.12
2017-04-10T04:47:52.762Z,1004.13
2017-04-10T04:48:52.780Z,1004.14
2017-04-10T04:49:52.798Z,1004.15
2017-04-10T04:50:52.814Z,1004.15
2017-04-10T04:51:52.881Z,1004.13
2017-04-10T04:52:52.851Z,1004.2
2017-04-10T04:53:52.866Z,1004.18
2017-04-10T04:54:52.884Z,1004.21
2017-04-10T04:55:52.900Z,1004.19
2017-04-10T04:56:52.918Z,1004.16
2017-04-10T04:57:52.936Z,1004.21
2017-04-10T04:58:52.953Z,1004.15
2017-04-10T04:59:52.970Z,1004.2
2017-04-10T05:00:52.988Z,1004.16
2017-04-10T05:01:53.005Z,1004.17
2017-04-10T05:02:53.021Z,1004.21
2017-04-10T05:03:53.038Z,1004.2
2017-04-10T05:04:53.058Z,1004.23
2017-04-10T05:05:53.074Z,1004.24
2017-04-10T05:06:53.090Z,1004.25
2017-04-10T05:07:53.108Z,1004.23
2017-04-10T05:08:53.125Z,1004.26
2017-04-10T05:09:53.141Z,1004.26
2017-04-10T05:10:53.160Z,1004.25
2017-04-10T05:11:53.178Z,1004.25
2017-04-10T05:12:53.195Z,1004.2
2017-04-10T05:13:53.316Z,1004.26
2017-04-10T05:14:53.229Z,1004.19
2017-04-10T05:15:53.246Z,1004.17
2017-04-10T05:16:53.264Z,1004.2
2017-04-10T05:17:53.280Z,1004.2
2017-04-10T05:18:53.300Z,1004.2
2017-04-10T05:19:53.316Z,1004.19
2017-04-10T05:20:53.335Z,1004.16
2017-04-10T05:21:53.349Z,1004.17
2017-04-10T05:22:53.366Z,1004.15
2017-04-10T05:23:53.384Z,1004.14
2017-04-10T05:24:53.401Z,1004.14
2017-04-10T05:25:53.419Z,1004.14
2017-04-10T05:26:53.436Z,1004.09
2017-04-10T05:27:53.452Z,1004.1
2017-04-10T05:28:53.469Z,1004.12
2017-04-10T05:29:53.487Z,1004.12
2017-04-10T05:30:53.504Z,1004.11
2017-04-10T05:31:53.520Z,1004.13
2017-04-10T05:32:53.538Z,1004.11
2017-04-10T05:33:53.555Z,1004.15
2017-04-10T05:34:53.573Z,1004.13
2017-04-10T05:35:53.590Z,1004.09
2017-04-10T05:36:53.608Z,1004.08
2017-04-10T05:37:53.624Z,1004.12
2017-04-10T05:38:53.642Z,1004.14
2017-04-10T05:39:53.662Z,1004.1
2017-04-10T05:40:53.677Z,1004.13
2017-04-10T05:41:53.694Z,1004.07
2017-04-10T05:42:53.711Z,1004.04
2017-04-10T05:43:53.728Z,1004.05
2017-04-10T05:44:53.746Z,1004.02
2017-04-10T05:45:53.764Z,1004.06
2017-04-10T05:46:53.782Z,1004.05
2017-04-10T05:47:53.798Z,1004.04
2017-04-10T05:48:53.816Z,1004.02
2017-04-10T05:49:53.831Z,1003.99
2017-04-10T05:50:53.849Z,1004
2017-04-10T05:51:53.868Z,1004.01
2017-04-10T05:52:53.884Z,1003.99
2017-04-10T05:53:53.902Z,1004.01
2017-04-10T05:54:53.920Z,1004.02
2017-04-10T05:55:53.937Z,1004.11
2017-04-10T05:56:53.959Z,1004.09
2017-04-10T05:57:53.971Z,1004.08
2017-04-10T05:58:53.989Z,1004.06
2017-04-10T05:59:54.004Z,1004.07
2017-04-10T06:00:54.022Z,1004.04
2017-04-10T06:01:54.041Z,1004
2017-04-10T06:02:54.056Z,1004.04
2017-04-10T06:03:54.075Z,1004.03
2017-04-10T06:04:54.091Z,1004.02
2017-04-10T06:05:54.108Z,1003.98
2017-04-10T06:06:54.126Z,1003.97
2017-04-10T06:07:54.143Z,1004
2017-04-10T06:08:54.159Z,1003.96
2017-04-10T06:09:54.180Z,1003.95
2017-04-10T06:10:54.203Z,1004
2017-04-10T06:11:54.220Z,1003.98
2017-04-10T06:12:54.230Z,1003.94
2017-04-10T06:13:54.246Z,1003.96
2017-04-10T06:14:54.265Z,1003.96
2017-04-10T06:15:54.282Z,1003.94
2017-04-10T06:16:54.299Z,1003.95
2017-04-10T06:17:54.317Z,1003.94
2017-04-10T06:18:54.340Z,1003.89
2017-04-10T06:19:54.351Z,1003.89
2017-04-10T06:20:54.369Z,1003.89
2017-04-10T06:21:54.387Z,1003.88
2017-04-10T06:22:54.412Z,1003.89
2017-04-10T06:23:54.421Z,1003.92
2017-04-10T06:24:54.439Z,1003.86
2017-04-10T06:25:54.455Z,1003.86
2017-04-10T06:26:54.473Z,1003.8
2017-04-10T06:27:54.490Z,1003.84
2017-04-10T06:28:54.507Z,1003.8
2017-04-10T06:29:54.526Z,1003.79
2017-04-10T06:30:54.542Z,1003.8
2017-04-10T06:31:54.560Z,1003.78
2017-04-10T06:32:54.577Z,1003.77
2017-04-10T06:33:54.601Z,1003.76
2017-04-10T06:34:54.612Z,1003.76
2017-04-10T06:35:54.630Z,1003.76
2017-04-10T06:36:54.649Z,1003.72
2017-04-10T06:37:54.665Z,1003.73
2017-04-10T06:38:54.681Z,1003.71
2017-04-10T06:39:54.704Z,1003.66
2017-04-10T06:40:54.720Z,1003.64
2017-04-10T06:41:54.735Z,1003.61
2017-04-10T06:42:54.753Z,1003.58
2017-04-10T06:43:54.770Z,1003.58
2017-04-10T06:44:54.787Z,1003.57
2017-04-10T06:45:54.806Z,1003.55
2017-04-10T06:46:54.826Z,1003.53
2017-04-10T06:47:54.842Z,1003.55
2017-04-10T06:48:54.862Z,1003.57
2017-04-10T06:49:54.875Z,1003.56
2017-04-10T06:50:54.895Z,1003.56
2017-04-10T06:51:54.912Z,1003.61
2017-04-10T06:52:54.929Z,1003.6
2017-04-10T06:53:54.947Z,1003.6
2017-04-10T06:54:54.966Z,1003.56
2017-04-10T06:55:54.981Z,1003.6
2017-04-10T06:56:54.999Z,1003.57
2017-04-10T06:57:55.020Z,1003.54
2017-04-10T06:58:55.035Z,1003.52
2017-04-10T06:59:55.052Z,1003.52
2017-04-10T07:00:55.071Z,1003.53
2017-04-10T07:01:55.090Z,1003.54
2017-04-10T07:02:55.143Z,1003.51
2017-04-10T07:03:55.124Z,1003.53
2017-04-10T07:04:55.144Z,1003.5
2017-04-10T07:05:55.161Z,1003.49
2017-04-10T07:06:55.179Z,1003.56
2017-04-10T07:07:55.197Z,1003.5
2017-04-10T07:08:55.214Z,1003.5
2017-04-10T07:09:55.232Z,1003.51
2017-04-10T07:10:55.250Z,1003.48
2017-04-10T07:11:55.268Z,1003.52
2017-04-10T07:12:55.287Z,1003.47
2017-04-10T07:13:55.304Z,1003.49
2017-04-10T07:14:55.323Z,1003.54
2017-04-10T07:15:55.342Z,1003.52
2017-04-10T07:16:55.361Z,1003.5
2017-04-10T07:17:55.377Z,1003.5
2017-04-10T07:18:55.397Z,1003.54
2017-04-10T07:19:55.414Z,1003.51
2017-04-10T07:20:55.431Z,1003.43
2017-04-10T07:21:55.450Z,1003.44
2017-04-10T07:22:55.469Z,1003.44
2017-04-10T07:23:55.495Z,1003.48
2017-04-10T07:24:55.505Z,1003.5
2017-04-10T07:25:55.526Z,1003.41
2017-04-10T07:26:55.543Z,1003.47
2017-04-10T07:27:55.561Z,1003.48
2017-04-10T07:28:55.577Z,1003.45
2017-04-10T07:29:55.597Z,1003.45
2017-04-10T07:30:55.615Z,1003.47
2017-04-10T07:31:55.633Z,1003.49
2017-04-10T07:32:55.651Z,1003.45
2017-04-10T07:33:55.671Z,1003.49
2017-04-10T07:34:55.711Z,1003.54
2017-04-10T07:35:55.707Z,1003.48
2017-04-10T07:36:55.726Z,1003.5
2017-04-10T07:37:55.745Z,1003.49
2017-04-10T07:38:55.764Z,1003.47
2017-04-10T07:39:55.781Z,1003.48
2017-04-10T07:40:55.799Z,1003.51
2017-04-10T07:41:55.819Z,1003.49
2017-04-10T07:42:55.836Z,1003.51
2017-04-10T07:43:55.855Z,1003.52
2017-04-10T07:44:55.875Z,1003.51
2017-04-10T07:45:55.893Z,1003.46
2017-04-10T07:46:55.910Z,1003.47
2017-04-10T07:47:55.931Z,1003.37
2017-04-10T07:48:55.949Z,1003.42
2017-04-10T07:49:55.968Z,1003.4
2017-04-10T07:50:55.986Z,1003.36
2017-04-10T07:51:56.005Z,1003.45
2017-04-10T07:52:56.025Z,1003.39
2017-04-10T07:53:56.042Z,1003.34
2017-04-10T07:54:56.062Z,1003.34
2017-04-10T07:55:56.082Z,1003.35
2017-04-10T07:56:56.099Z,1003.36
2017-04-10T07:57:56.117Z,1003.37
2017-04-10T07:58:56.137Z,1003.4
2017-04-10T07:59:56.156Z,1003.4
2017-04-10T08:00:56.175Z,1003.38
2017-04-10T08:01:56.193Z,1003.29
2017-04-10T08:02:56.214Z,1003.39
2017-04-10T08:03:56.233Z,1003.36
2017-04-10T08:04:56.255Z,1003.39
2017-04-10T08:05:56.272Z,1003.36
2017-04-10T08:06:56.294Z,1003.38
2017-04-10T08:07:56.310Z,1003.38
2017-04-10T08:08:56.327Z,1003.4
2017-04-10T08:09:56.348Z,1003.41
2017-04-10T08:10:56.367Z,1003.41
2017-04-10T08:11:56.386Z,1003.38
2017-04-10T08:12:56.406Z,1003.45
2017-04-10T08:13:56.425Z,1003.42
2017-04-10T08:14:56.444Z,1003.44
2017-04-10T08:15:56.464Z,1003.43
2017-04-10T08:16:56.482Z,1003.47
2017-04-10T08:17:56.503Z,1003.45
2017-04-10T08:18:56.523Z,1003.46
2017-04-10T08:19:56.544Z,1003.48
2017-04-10T08:20:56.560Z,1003.46
2017-04-10T08:21:56.580Z,1003.4
2017-04-10T08:22:56.599Z,1003.5
2017-04-10T08:23:56.621Z,1003.5
2017-04-10T08:24:56.756Z,1003.43
2017-04-10T08:25:56.764Z,1003.44
2017-04-10T08:26:56.789Z,1003.46
2017-04-10T08:27:56.696Z,1003.52
2017-04-10T08:28:56.830Z,1003.51
2017-04-10T08:29:56.852Z,1003.47
2017-04-10T08:30:56.847Z,1003.5
2017-04-10T08:31:56.879Z,1003.49
2017-04-10T08:32:56.857Z,1003.5
2017-04-10T08:33:56.815Z,1003.44
2017-04-10T08:34:56.834Z,1003.43
2017-04-10T08:35:56.855Z,1003.44
2017-04-10T08:36:56.876Z,1003.37
2017-04-10T08:37:56.895Z,1003.4
2017-04-10T08:38:56.914Z,1003.38
2017-04-10T08:39:56.935Z,1003.38
2017-04-10T08:40:56.954Z,1003.38
2017-04-10T08:41:56.972Z,1003.39
2017-04-10T08:42:56.997Z,1003.42
2017-04-10T08:43:57.013Z,1003.39
2017-04-10T08:44:57.033Z,1003.35
2017-04-10T08:45:57.053Z,1003.32
2017-04-10T08:46:57.074Z,1003.37
2017-04-10T08:47:57.094Z,1003.31
2017-04-10T08:48:57.114Z,1003.31
2017-04-10T08:49:57.141Z,1003.31
2017-04-10T08:50:57.156Z,1003.35
2017-04-10T08:51:57.175Z,1003.33
2017-04-10T08:52:57.195Z,1003.29
2017-04-10T08:53:57.214Z,1003.26
2017-04-10T08:54:57.236Z,1003.27
2017-04-10T08:55:57.255Z,1003.28
2017-04-10T08:56:57.273Z,1003.25
2017-04-10T08:57:57.296Z,1003.24
2017-04-10T08:58:57.315Z,1003.24
2017-04-10T08:59:57.335Z,1003.23
2017-04-10T09:00:57.357Z,1003.19
2017-04-10T09:01:57.375Z,1003.19
2017-04-10T09:02:57.396Z,1003.21
2017-04-10T09:03:57.417Z,1003.2
2017-04-10T09:04:57.436Z,1003.21
2017-04-10T09:05:57.458Z,1003.15
2017-04-10T09:06:57.480Z,1003.17
2017-04-10T09:07:57.499Z,1003.16
2017-04-10T09:08:57.518Z,1003.19
2017-04-10T09:09:57.539Z,1003.2
2017-04-10T09:10:57.559Z,1003.22
2017-04-10T09:11:57.579Z,1003.21
2017-04-10T09:12:57.602Z,1003.17
2017-04-10T09:13:57.622Z,1003.17
2017-04-10T09:14:57.642Z,1003.2
2017-04-10T09:15:57.662Z,1003.23
2017-04-10T09:16:57.684Z,1003.24
2017-04-10T09:17:57.704Z,1003.2
2017-04-10T09:18:57.724Z,1003.23
2017-04-10T09:19:57.746Z,1003.23
2017-04-10T09:20:57.768Z,1003.24
2017-04-10T09:21:57.788Z,1003.18
2017-04-10T09:22:57.809Z,1003.2
2017-04-10T09:23:57.831Z,1003.17
2017-04-10T09:24:57.849Z,1003.15
2017-04-10T09:25:57.870Z,1003.21
2017-04-10T09:26:57.892Z,1003.17
2017-04-10T09:27:57.912Z,1003.19
2017-04-10T09:28:57.933Z,1003.17
2017-04-10T09:29:57.955Z,1003.11
2017-04-10T09:30:57.977Z,1003.13
2017-04-10T09:31:57.997Z,1003.21
2017-04-10T09:32:58.017Z,1003.22
2017-04-10T09:33:58.040Z,1003.21
2017-04-10T09:34:58.060Z,1003.2
2017-04-10T09:35:58.082Z,1003.17
2017-04-10T09:36:58.102Z,1003.19
2017-04-10T09:37:58.123Z,1003.15
2017-04-10T09:38:58.145Z,1003.18
2017-04-10T09:39:58.166Z,1003.18
2017-04-10T09:40:58.186Z,1003.16
2017-04-10T09:41:58.208Z,1003.16
2017-04-10T09:42:58.231Z,1003.15
2017-04-10T09:43:58.250Z,1003.19
2017-04-10T09:44:58.273Z,1003.15
2017-04-10T09:45:58.293Z,1003.19
2017-04-10T09:46:58.317Z,1003.17
2017-04-10T09:47:58.336Z,1003.18
2017-04-10T09:48:58.357Z,1003.18
2017-04-10T09:49:58.379Z,1003.17
2017-04-10T09:50:58.400Z,1003.15
2017-04-10T09:51:58.420Z,1003.14
2017-04-10T09:52:58.444Z,1003.12
2017-04-10T09:53:58.468Z,1003.13
2017-04-10T09:54:58.487Z,1003.11
2017-04-10T09:55:58.508Z,1003.05
2017-04-10T09:56:58.531Z,1003.07
2017-04-10T09:57:58.554Z,1003.08
2017-04-10T09:58:58.574Z,1003.1
2017-04-10T09:59:58.596Z,1003.11
2017-04-10T10:00:58.618Z,1003.09
2017-04-10T10:01:58.639Z,1003.15
2017-04-10T10:02:58.662Z,1003.13
2017-04-10T10:03:58.684Z,1003.19
2017-04-10T10:04:58.705Z,1003.13
2017-04-10T10:05:58.727Z,1003.2
2017-04-10T10:06:58.749Z,1003.2
2017-04-10T10:07:58.770Z,1003.2
2017-04-10T10:08:58.794Z,1003.21
2017-04-10T10:09:58.814Z,1003.21
2017-04-10T10:10:58.836Z,1003.14
2017-04-10T10:11:58.861Z,1003.13
2017-04-10T10:12:58.881Z,1003.12
2017-04-10T10:13:58.905Z,1003.13
2017-04-10T10:14:58.928Z,1003.1
2017-04-10T10:15:58.949Z,1003.07
2017-04-10T10:16:58.973Z,1003.07
2017-04-10T10:17:58.994Z,1003.07
2017-04-10T10:18:59.017Z,1003.11
2017-04-10T10:19:59.038Z,1003.07
2017-04-10T10:20:59.062Z,1003.06
2017-04-10T10:21:59.083Z,1003.08
2017-04-10T10:22:59.106Z,1003.16
2017-04-10T10:23:59.129Z,1003.11
2017-04-10T10:24:59.154Z,1003.08
2017-04-10T10:25:59.176Z,1003.07
2017-04-10T10:26:59.199Z,1003.11
2017-04-10T10:27:59.221Z,1003.02
2017-04-10T10:28:59.245Z,1003.01
2017-04-10T10:29:59.266Z,1003.02
2017-04-10T10:30:59.290Z,1002.99
2017-04-10T10:31:59.311Z,1003
2017-04-10T10:32:59.336Z,1003.01
2017-04-10T10:33:59.358Z,1002.98
2017-04-10T10:34:59.380Z,1002.99
2017-04-10T10:35:59.405Z,1002.92
2017-04-10T10:36:59.428Z,1002.81
2017-04-10T10:37:59.450Z,1002.86
2017-04-10T10:38:59.472Z,1002.9
2017-04-10T10:39:59.495Z,1002.91
2017-04-10T10:40:59.519Z,1002.86
2017-04-10T10:41:59.543Z,1002.81
2017-04-10T10:42:59.571Z,1002.74
2017-04-10T10:43:59.589Z,1002.82
2017-04-10T10:44:59.614Z,1002.78
2017-04-10T10:45:59.635Z,1002.77
2017-04-10T10:46:59.659Z,1002.78
2017-04-10T10:47:59.683Z,1002.75
2017-04-10T10:48:59.707Z,1002.77
2017-04-10T10:49:59.729Z,1002.73
2017-04-10T10:50:59.752Z,1002.72
2017-04-10T10:51:59.778Z,1002.68
2017-04-10T10:52:59.801Z,1002.68
2017-04-10T10:53:59.824Z,1002.66
2017-04-10T10:54:59.847Z,1002.64
2017-04-10T10:55:59.871Z,1002.63
2017-04-10T10:56:59.894Z,1002.61
2017-04-10T10:57:59.919Z,1002.66
2017-04-10T10:58:59.943Z,1002.62
2017-04-10T10:59:59.968Z,1002.53
2017-04-10T11:00:59.990Z,1002.6
2017-04-10T11:02:00.014Z,1002.57
2017-04-10T11:03:00.038Z,1002.55
2017-04-10T11:04:00.064Z,1002.54
2017-04-10T11:05:00.087Z,1002.54
2017-04-10T11:06:00.112Z,1002.49
2017-04-10T11:07:00.136Z,1002.48
2017-04-10T11:08:00.164Z,1002.53
2017-04-10T11:09:00.183Z,1002.53
2017-04-10T11:10:00.208Z,1002.5
2017-04-10T11:11:00.232Z,1002.53
2017-04-10T11:12:00.258Z,1002.57
2017-04-10T11:13:00.281Z,1002.6
2017-04-10T11:14:00.317Z,1002.51
2017-04-10T11:15:00.331Z,1002.57
2017-04-10T11:16:00.355Z,1002.53
2017-04-10T11:17:00.379Z,1002.54
2017-04-10T11:18:00.405Z,1002.54
2017-04-10T11:19:00.428Z,1002.57
2017-04-10T11:20:00.452Z,1002.58
2017-04-10T11:21:00.478Z,1002.6
2017-04-10T11:22:00.508Z,1002.58
2017-04-10T11:23:00.527Z,1002.59
2017-04-10T11:24:00.556Z,1002.59
2017-04-10T11:25:00.578Z,1002.61
2017-04-10T11:26:00.603Z,1002.68
2017-04-10T11:27:00.628Z,1002.57
2017-04-10T11:28:00.652Z,1002.59
2017-04-10T11:29:00.678Z,1002.63
2017-04-10T11:30:00.709Z,1002.65
2017-04-10T11:31:00.728Z,1002.65
2017-04-10T11:32:00.756Z,1002.66
2017-04-10T11:33:00.777Z,1002.66
2017-04-10T11:34:00.805Z,1002.67
2017-04-10T11:35:00.830Z,1002.68
2017-04-10T11:36:00.861Z,1002.65
2017-04-10T11:37:00.881Z,1002.67
2017-04-10T11:38:00.911Z,1002.72
2017-04-10T11:39:00.929Z,1002.66
2017-04-10T11:40:00.956Z,1002.67
2017-04-10T11:41:00.981Z,1002.73
2017-04-10T11:42:01.014Z,1002.73
2017-04-10T11:43:01.034Z,1002.76
2017-04-10T11:44:01.063Z,1002.69
2017-04-10T11:45:01.081Z,1002.71
2017-04-10T11:46:01.107Z,1002.76
2017-04-10T11:47:01.133Z,1002.73
2017-04-10T11:48:01.167Z,1002.71
2017-04-10T11:49:01.182Z,1002.76
2017-04-10T11:50:01.217Z,1002.77
2017-04-10T11:51:01.235Z,1002.89
2017-04-10T11:52:01.260Z,1002.89
2017-04-10T11:53:01.284Z,1002.88
2017-04-10T11:54:01.311Z,1002.94
2017-04-10T11:55:01.336Z,1002.92
2017-04-10T11:56:01.371Z,1002.95
2017-04-10T11:57:01.389Z,1002.89
2017-04-10T11:58:01.414Z,1002.88
2017-04-10T11:59:01.439Z,1002.93
2017-04-10T12:00:01.465Z,1002.94
2017-04-10T12:01:01.491Z,1002.97
2017-04-10T12:02:01.518Z,1002.99
2017-04-10T12:03:01.542Z,1002.96
2017-04-10T12:04:01.569Z,1002.94
2017-04-10T12:05:01.595Z,1002.94
2017-04-10T12:06:01.620Z,1002.93
2017-04-10T12:07:01.645Z,1002.95
2017-04-10T12:08:01.672Z,1002.94
2017-04-10T12:09:01.698Z,1002.91